createdAt,value
2022-09-12T00:00:31.940Z,88.89
2022-09-12T00:05:54.430Z,89.38
2022-09-12T00:10:56.843Z,89.83
2022-09-12T00:15:59.199Z,90.10
2022-09-12T00:21:02.575Z,90.71
2022-09-12T00:26:06.288Z,91.01
2022-09-12T00:31:10.180Z,91.39
2022-09-12T00:37:04.128Z,91.21
2022-09-12T00:42:06.497Z,91.87
2022-09-12T00:47:11.731Z,91.61
2022-09-12T00:52:18.620Z,91.96
2022-09-12T00:57:23.676Z,92.36
2022-09-12T01:02:26.494Z,92.27
2022-09-12T01:07:29.142Z,92.22
2022-09-12T01:12:33.553Z,92.46
2022-09-12T01:17:38.833Z,92.77
2022-09-12T01:22:54.331Z,92.98
2022-09-12T01:27:56.588Z,92.71
2022-09-12T01:33:01.843Z,92.23
2022-09-12T01:38:10.334Z,92.10
2022-09-12T01:43:21.244Z,92.22
2022-09-12T01:48:26.440Z,92.46
2022-09-12T01:53:34.070Z,92.50
2022-09-12T01:58:40.360Z,92.05
2022-09-12T02:03:45.648Z,92.10
2022-09-12T02:08:52.280Z,92.08
2022-09-12T02:13:58.941Z,92.10
2022-09-12T02:19:07.815Z,92.52
2022-09-12T02:24:13.234Z,92.23
2022-09-12T02:29:15.733Z,92.38
2022-09-12T02:34:20.970Z,92.70
2022-09-12T02:39:23.389Z,92.64
2022-09-12T02:44:27.611Z,92.53
2022-09-12T02:49:30.032Z,92.65
2022-09-12T02:54:32.473Z,92.46
2022-09-12T02:59:34.774Z,92.44
2022-09-12T03:04:38.065Z,92.41
2022-09-12T03:09:44.212Z,92.35
2022-09-12T03:14:46.640Z,92.04
2022-09-12T03:19:57.259Z,91.91
2022-09-12T03:25:05.614Z,91.81
2022-09-12T03:30:08.248Z,92.02
2022-09-12T03:35:10.816Z,91.80
2022-09-12T03:40:13.282Z,91.64
2022-09-12T03:45:16.515Z,91.62
2022-09-12T03:50:18.891Z,91.28
2022-09-12T03:55:21.202Z,91.10
2022-09-12T04:00:23.732Z,90.94
2022-09-12T04:05:26.552Z,90.87
2022-09-12T04:10:29.090Z,90.70
2022-09-12T04:15:31.406Z,90.74
2022-09-12T04:20:33.724Z,90.70
2022-09-12T04:25:36.103Z,90.51
2022-09-12T04:30:38.682Z,90.59
2022-09-12T04:35:41.591Z,90.36
2022-09-12T04:47:23.040Z,89.93
2022-09-12T04:52:25.361Z,89.33
2022-09-12T04:57:27.875Z,89.08
2022-09-12T05:02:30.349Z,88.89
2022-09-12T05:07:32.803Z,88.88
2022-09-12T05:12:36.601Z,88.56
2022-09-12T05:17:38.966Z,88.63
2022-09-12T05:22:41.312Z,88.55
2022-09-12T05:27:46.417Z,88.57
2022-09-12T05:32:52.300Z,88.34
2022-09-12T05:37:55.741Z,88.52
2022-09-12T05:42:58.067Z,88.58
2022-09-12T05:48:00.478Z,88.43
2022-09-12T05:54:01.244Z,87.65
2022-09-12T05:59:04.710Z,86.75
2022-09-12T06:04:07.450Z,86.02
2022-09-12T06:09:10.455Z,85.95
2022-09-12T06:14:13.892Z,85.87
2022-09-12T06:19:17.413Z,85.13
2022-09-12T06:24:20.718Z,83.86
2022-09-12T06:29:23.029Z,83.11
2022-09-12T06:34:26.992Z,83.33
2022-09-12T06:39:29.422Z,81.54
2022-09-12T06:44:31.708Z,80.30
2022-09-12T06:49:34.174Z,79.46
2022-09-12T06:54:36.488Z,79.19
2022-09-12T06:59:38.840Z,77.33
2022-09-12T07:04:41.144Z,77.00
2022-09-12T07:09:44.510Z,75.54
2022-09-12T07:14:47.559Z,74.65
2022-09-12T07:19:49.855Z,74.21
2022-09-12T07:24:53.990Z,72.32
2022-09-12T07:29:56.292Z,72.62
2022-09-12T07:34:58.593Z,72.16
2022-09-12T07:40:01.229Z,71.59
2022-09-12T07:45:03.907Z,69.78
2022-09-12T07:50:06.854Z,68.82
2022-09-12T07:55:09.266Z,66.71
2022-09-12T08:00:11.802Z,66.76
2022-09-12T08:05:14.126Z,67.46
2022-09-12T08:10:16.432Z,67.17
2022-09-12T08:15:20.221Z,66.32
2022-09-12T08:20:25.344Z,66.32
2022-09-12T08:25:31.017Z,65.62
2022-09-12T08:30:33.523Z,65.31
2022-09-12T08:35:35.906Z,64.64
2022-09-12T08:40:41.178Z,65.22
2022-09-12T08:45:51.727Z,64.84
2022-09-12T08:50:54.156Z,64.63
2022-09-12T08:55:59.056Z,65.70
2022-09-12T09:01:04.588Z,65.59
2022-09-12T09:06:13.182Z,65.99
2022-09-12T09:11:17.504Z,66.27
2022-09-12T09:16:22.974Z,65.87
2022-09-12T09:21:28.652Z,65.54
2022-09-12T09:26:39.172Z,63.80
2022-09-12T09:31:42.330Z,62.62
2022-09-12T09:36:48.352Z,60.98
2022-09-12T09:41:50.832Z,59.89
2022-09-12T09:46:55.491Z,57.64
2022-09-12T09:52:00.568Z,56.97
2022-09-12T09:57:04.987Z,56.64
2022-09-12T10:02:10.742Z,54.80
2022-09-12T10:07:18.685Z,53.88
2022-09-12T10:12:26.137Z,52.91
2022-09-12T10:17:34.275Z,53.42
2022-09-12T10:22:38.465Z,54.09
2022-09-12T10:27:41.805Z,53.65
2022-09-12T10:32:46.445Z,52.20
2022-09-12T10:37:52.322Z,51.67
2022-09-12T10:42:56.263Z,52.29
2022-09-12T10:48:07.349Z,52.22
2022-09-12T10:53:13.397Z,52.57
2022-09-12T10:58:18.841Z,53.70
2022-09-12T11:03:24.711Z,52.97
2022-09-12T11:08:47.174Z,53.38
2022-09-12T11:13:55.589Z,53.25
2022-09-12T11:19:06.826Z,53.50
2022-09-12T11:24:12.117Z,54.07
2022-09-12T11:29:14.417Z,54.45
2022-09-12T11:34:20.104Z,54.21
2022-09-12T11:39:28.020Z,53.02
2022-09-12T11:44:33.317Z,53.05
2022-09-12T11:49:36.694Z,51.86
2022-09-12T11:54:42.329Z,52.73
2022-09-12T11:59:47.610Z,53.71
2022-09-12T12:04:52.952Z,54.25
2022-09-12T12:09:55.594Z,53.79
2022-09-12T12:14:58.993Z,53.72
2022-09-12T12:20:07.489Z,53.31
2022-09-12T12:25:12.119Z,53.31
2022-09-12T12:30:17.349Z,52.18
2022-09-12T12:35:23.435Z,52.87
2022-09-12T12:40:26.713Z,53.86
2022-09-12T12:45:29.228Z,54.67
2022-09-12T12:50:32.061Z,54.56
2022-09-12T12:55:37.735Z,53.74
2022-09-12T13:00:40.359Z,52.41
2022-09-12T13:05:46.552Z,51.88
2022-09-12T13:10:52.475Z,49.95
2022-09-12T13:15:54.948Z,50.45
2022-09-12T13:21:01.088Z,51.36
2022-09-12T13:26:04.999Z,52.60
2022-09-12T13:31:10.433Z,53.31
2022-09-12T13:36:15.700Z,53.12
2022-09-12T13:41:18.031Z,53.12
2022-09-12T13:46:30.386Z,50.77
2022-09-12T13:51:32.803Z,47.71
2022-09-12T13:56:46.404Z,46.85
2022-09-12T14:01:48.768Z,48.44
2022-09-12T14:06:52.029Z,48.59
2022-09-12T14:11:54.415Z,49.67
2022-09-12T14:16:57.778Z,50.47
2022-09-12T14:22:02.268Z,51.24
2022-09-12T14:27:04.801Z,52.28
2022-09-12T14:32:18.495Z,53.28
2022-09-12T14:37:20.872Z,53.38
2022-09-12T14:42:30.963Z,50.99
2022-09-12T14:47:38.704Z,48.26
2022-09-12T14:52:41.013Z,49.02
2022-09-12T14:57:44.450Z,50.16
2022-09-12T15:02:47.898Z,47.41
2022-09-12T15:07:50.221Z,44.31
2022-09-12T15:13:04.541Z,41.29
2022-09-12T15:18:07.387Z,39.39
2022-09-12T15:23:14.971Z,39.35
2022-09-12T15:28:19.899Z,38.67
2022-09-12T15:33:24.031Z,38.55
2022-09-12T15:38:26.942Z,39.17
2022-09-12T15:43:29.546Z,37.89
2022-09-12T15:48:32.014Z,38.40
2022-09-12T15:53:34.508Z,37.70
2022-09-12T15:58:46.027Z,35.88
2022-09-12T16:03:57.850Z,36.81
2022-09-12T16:09:01.024Z,38.61
2022-09-12T16:14:04.481Z,41.92
2022-09-12T16:19:07.227Z,45.11
2022-09-12T16:24:09.763Z,48.05
2022-09-12T16:29:12.782Z,50.27
2022-09-12T16:34:15.395Z,52.30
2022-09-12T16:39:17.717Z,54.20
2022-09-12T16:44:20.163Z,55.80
2022-09-12T16:49:22.464Z,57.15
2022-09-12T16:54:24.781Z,58.14
2022-09-12T16:59:27.073Z,59.12
2022-09-12T17:04:29.490Z,60.24
2022-09-12T17:09:31.840Z,61.02
2022-09-12T17:14:34.235Z,61.63
2022-09-12T17:19:36.565Z,63.37
2022-09-12T17:24:39.462Z,63.81
2022-09-12T17:29:41.848Z,64.43
2022-09-12T17:34:44.176Z,65.27
2022-09-12T17:39:46.547Z,66.06
2022-09-12T17:44:50.310Z,67.20
2022-09-12T17:49:58.629Z,67.10
2022-09-12T17:55:08.066Z,67.80
2022-09-12T18:00:10.795Z,68.73
2022-09-12T18:05:14.025Z,69.33
2022-09-12T18:10:16.363Z,70.03
2022-09-12T18:15:18.675Z,70.89
2022-09-12T18:20:21.031Z,71.47
2022-09-12T18:25:23.618Z,72.37
2022-09-12T18:30:25.930Z,73.20
2022-09-12T18:35:28.269Z,73.96
2022-09-12T18:40:30.584Z,74.30
2022-09-12T18:45:33.408Z,74.29
2022-09-12T18:50:35.760Z,74.94
2022-09-12T18:55:38.087Z,74.85
2022-09-12T19:00:41.260Z,74.84
2022-09-12T19:05:43.735Z,75.48
2022-09-12T19:10:53.707Z,75.92
2022-09-12T19:15:56.163Z,76.41
2022-09-12T19:20:58.557Z,76.87
2022-09-12T19:26:06.048Z,77.07
2022-09-12T19:31:09.944Z,77.22
2022-09-12T19:36:40.838Z,77.92
2022-09-12T19:41:36.263Z,78.04
2022-09-12T19:46:38.654Z,78.70
2022-09-12T19:51:41.473Z,79.22
2022-09-12T19:56:43.879Z,79.31
2022-09-12T20:01:46.691Z,79.29
2022-09-12T20:06:49.571Z,79.54
2022-09-12T20:11:51.900Z,80.03
2022-09-12T20:16:54.207Z,80.63
2022-09-12T20:21:56.538Z,80.87
2022-09-12T20:33:37.466Z,81.50
2022-09-12T20:38:40.101Z,81.57
2022-09-12T20:43:42.450Z,81.72
2022-09-12T20:55:11.996Z,81.86
2022-09-12T21:00:14.524Z,82.22
2022-09-12T21:05:17.334Z,82.32
2022-09-12T21:10:19.757Z,81.89
2022-09-12T21:15:22.394Z,82.10
2022-09-12T21:20:24.733Z,82.74
2022-09-12T21:32:06.008Z,83.51
2022-09-12T21:37:08.462Z,84.15
2022-09-12T21:42:10.810Z,84.93
2022-09-12T21:47:13.119Z,85.30
2022-09-12T21:52:15.439Z,85.50
2022-09-12T21:57:17.730Z,85.72
2022-09-12T22:02:20.182Z,85.54
2022-09-12T22:07:23.422Z,85.82
2022-09-12T22:12:28.698Z,85.78
2022-09-12T22:17:31.092Z,85.41
2022-09-12T22:22:37.876Z,85.18
2022-09-12T22:27:40.192Z,85.26
2022-09-12T22:32:42.668Z,85.30
2022-09-12T22:37:46.264Z,85.19
2022-09-12T22:42:50.907Z,84.88
2022-09-12T22:47:53.213Z,84.79
2022-09-12T22:52:55.684Z,85.13
2022-09-12T22:57:57.974Z,84.96
2022-09-12T23:03:01.507Z,84.46
2022-09-12T23:08:03.854Z,84.42
2022-09-12T23:13:06.824Z,84.57
2022-09-12T23:18:09.128Z,85.29
2022-09-12T23:23:11.495Z,86.12
2022-09-12T23:28:14.637Z,86.57
2022-09-12T23:33:17.097Z,86.33
2022-09-12T23:38:19.401Z,86.37
2022-09-12T23:43:21.740Z,86.26
2022-09-12T23:48:24.124Z,86.14
2022-09-12T23:53:26.679Z,86.23
2022-09-12T23:58:30.837Z,86.18
